Date,TemperatureHighF,TemperatureAvgF,TemperatureLowF,DewpointHighF,DewpointAvgF,DewpointLowF,HumidityHigh,HumidityAvg,HumidityLow,PressureMaxIn,PressureMinIn,WindSpeedMaxMPH,WindSpeedAvgMPH,GustSpeedMaxMPH,PrecipitationSumIn
2013-1-1,56.9,43.1,34.0,43.4,38.0,32.7,95,84,51,30.28,30.17,4,0,4,0.00
2013-1-2,55.0,38.9,30.8,43.9,35.9,29.8,98,90,61,30.27,30.17,4,0,4,0.00
2013-1-3,58.8,40.2,29.2,44.4,35.7,28.3,98,86,53,30.30,30.17,4,0,4,0.00
2013-1-4,58.2,40.8,29.1,45.9,36.9,28.1,98,87,61,30.34,30.20,4,0,4,0.00
2013-1-5,61.8,45.6,31.4,43.3,38.2,30.4,98,78,45,30.29,30.08,4,0,4,0.00
2013-1-6,52.6,47.3,43.7,47.1,44.2,40.7,95,89,77,30.17,30.07,4,1,4,0.31
2013-1-7,53.9,46.1,37.1,45.2,42.1,35.8,95,87,64,30.29,30.13,4,0,4,0.00
2013-1-8,59.1,43.5,33.4,47.3,39.7,32.6,98,88,63,30.26,30.17,4,0,4,0.00
2013-1-9,63.7,48.4,36.1,52.5,44.6,35.1,98,88,66,30.18,29.93,4,0,4,0.00
2013-1-10,51.3,42.8,35.1,47.0,37.3,33.0,97,82,55,30.17,30.02,12,2,12,0.08
2013-1-11,50.3,38.4,28.1,37.8,32.7,26.9,97,81,52,30.25,30.13,9,1,9,0.00
2013-1-12,50.6,38.0,29.0,36.9,31.8,27.5,96,80,52,30.26,30.14,4,0,4,0.00
2013-1-13,50.2,36.6,26.7,35.5,30.7,25.4,97,81,53,30.26,30.15,4,0,4,0.00
2013-1-14,50.7,35.6,25.0,32.8,28.0,23.8,96,77,41,30.43,30.22,4,0,4,0.00
2013-1-15,56.5,37.9,26.5,34.9,29.7,24.9,94,75,40,30.52,30.40,5,1,5,0.00
2013-1-16,59.4,40.3,27.4,37.9,32.6,25.9,96,77,43,30.47,30.28,4,0,4,0.00
2013-1-17,65.1,43.4,28.8,42.5,35.9,27.5,97,78,41,30.31,30.17,4,0,4,0.00
2013-1-18,67.2,45.0,30.8,46.0,37.6,29.5,97,79,37,30.25,30.14,4,0,4,0.00
2013-1-19,65.9,45.3,30.9,45.1,38.0,29.6,97,79,44,30.29,30.16,4,0,4,0.00
2013-1-20,65.7,45.5,31.3,45.7,38.5,30.0,97,79,47,30.26,30.13,4,0,4,0.00
2013-1-21,69.6,47.1,32.5,46.9,38.8,31.2,97,77,34,30.20,30.10,5,0,5,0.00
2013-1-22,71.6,48.4,33.6,45.9,38.9,32.1,95,74,26,30.17,30.02,4,0,4,0.00
2013-1-23,71.0,53.1,40.0,46.0,40.9,36.6,90,66,33,30.08,30.00,8,0,8,0.00
2013-1-24,61.4,56.4,51.2,55.8,53.2,46.1,97,90,69,30.18,30.02,5,1,5,0.15
2013-1-25,62.1,55.4,52.1,56.4,53.5,51.0,97,93,81,30.18,30.02,4,0,4,0.01
2013-1-26,61.4,56.1,52.4,57.5,54.6,48.3,99,95,82,30.03,29.94,7,0,7,0.05
2013-1-27,55.3,47.6,38.7,48.0,41.0,36.0,93,79,58,30.14,29.98,10,2,10,0.05
2013-1-28,56.9,44.1,36.7,43.1,37.7,34.6,94,79,52,30.27,30.12,4,0,4,0.00
2013-1-29,59.3,44.3,33.6,44.1,38.0,32.2,97,80,53,30.32,30.24,5,1,5,0.00
2013-1-30,65.4,46.6,34.0,45.5,39.6,32.9,97,79,46,30.38,30.28,4,0,4,0.00
2013-1-31,68.8,49.4,36.1,48.1,42.3,34.9,98,79,46,30.30,30.17,4,0,4,0.00